Time,TemperatureF,DewpointF,PressureIn,WindDirection,WindDirectionDegrees,WindSpeedMPH,WindSpeedGustMPH,Humidity,HourlyPrecipIn,Conditions,Clouds,dailyrainin,SoftwareType,DateUTC
2013-04-22 00:00:00,44.5,29.0,30.59,SE,146,0.0,4.0,55,0.00,,,0.00,weatherlink.com 1.10,2013-04-22 04:00:00,
2013-04-22 00:15:00,44.2,29.0,30.59,SE,146,0.0,1.0,55,0.00,,,0.00,weatherlink.com 1.10,2013-04-22 04:15:00,
2013-04-22 00:30:00,43.6,29.0,30.59,SE,146,0.0,0.0,57,0.00,,,0.00,weatherlink.com 1.10,2013-04-22 04:30:00,
2013-04-22 00:45:00,43.0,29.0,30.60,SE,146,0.0,0.0,59,0.00,,,0.00,weatherlink.com 1.10,2013-04-22 04:45:00,
2013-04-22 01:00:00,42.5,29.0,30.59,SE,146,0.0,0.0,59,0.00,,,0.00,weatherlink.com 1.10,2013-04-22 05:00:00,
2013-04-22 01:15:00,41.8,29.0,30.59,SE,146,0.0,0.0,61,0.00,,,0.00,weatherlink.com 1.10,2013-04-22 05:15:00,
2013-04-22 01:30:00,41.8,29.0,30.59,SE,146,0.0,1.0,62,0.00,,,0.00,weatherlink.com 1.10,2013-04-22 05:30:00,
2013-04-22 01:45:00,42.3,30.0,30.59,SE,146,0.0,1.0,62,0.00,,,0.00,weatherlink.com 1.10,2013-04-22 05:45:00,
2013-04-22 02:00:00,42.1,30.0,30.59,SE,146,0.0,1.0,63,0.00,,,0.00,weatherlink.com 1.10,2013-04-22 06:00:00,
2013-04-22 02:15:00,42.0,30.0,30.58,SE,146,1.0,2.0,63,0.00,,,0.00,weatherlink.com 1.10,2013-04-22 06:15:00,
2013-04-22 02:30:00,41.5,30.0,30.58,SE,146,0.0,2.0,64,0.00,,,0.00,weatherlink.com 1.10,2013-04-22 06:30:00,
2013-04-22 02:45:00,41.4,30.0,30.58,SE,146,1.0,2.0,64,0.00,,,0.00,weatherlink.com 1.10,2013-04-22 06:45:00,
2013-04-22 03:00:00,40.9,31.0,30.57,SE,146,0.0,1.0,67,0.00,,,0.00,weatherlink.com 1.10,2013-04-22 07:00:00,
2013-04-22 03:15:00,40.3,30.0,30.57,SE,146,1.0,2.0,67,0.00,,,0.00,weatherlink.com 1.10,2013-04-22 07:15:00,
2013-04-22 03:30:00,40.0,31.0,30.58,SE,146,1.0,2.0,71,0.00,,,0.00,weatherlink.com 1.10,2013-04-22 07:30:00,
2013-04-22 03:45:00,39.6,30.0,30.58,SE,146,1.0,1.0,69,0.00,,,0.00,weatherlink.com 1.10,2013-04-22 07:45:00,
2013-04-22 04:00:00,39.7,30.0,30.58,SE,146,1.0,2.0,68,0.00,,,0.00,weatherlink.com 1.10,2013-04-22 08:00:00,
2013-04-22 04:15:00,39.4,30.0,30.59,SE,146,0.0,2.0,70,0.00,,,0.00,weatherlink.com 1.10,2013-04-22 08:15:00,
2013-04-22 04:30:00,38.3,31.0,30.59,SE,146,0.0,0.0,75,0.00,,,0.00,weatherlink.com 1.10,2013-04-22 08:30:00,
2013-04-22 04:45:00,37.3,30.0,30.59,SE,146,0.0,0.0,75,0.00,,,0.00,weatherlink.com 1.10,2013-04-22 08:45:00,
2013-04-22 05:00:00,36.4,30.0,30.60,SE,146,0.0,0.0,76,0.00,,,0.00,weatherlink.com 1.10,2013-04-22 09:00:00,
2013-04-22 05:15:00,36.0,30.0,30.60,SE,146,0.0,0.0,80,0.00,,,0.00,weatherlink.com 1.10,2013-04-22 09:15:00,
2013-04-22 05:30:00,35.7,31.0,30.59,SE,146,0.0,1.0,84,0.00,,,0.00,weatherlink.com 1.10,2013-04-22 09:30:00,
2013-04-22 05:45:00,35.3,31.0,30.59,SE,146,0.0,1.0,85,0.00,,,0.00,weatherlink.com 1.10,2013-04-22 09:45:00,
2013-04-22 06:00:00,34.9,31.0,30.59,SE,146,1.0,1.0,86,0.00,,,0.00,weatherlink.com 1.10,2013-04-22 10:00:00,
2013-04-22 06:15:00,34.4,31.0,30.60,SE,146,0.0,1.0,87,0.00,,,0.00,weatherlink.com 1.10,2013-04-22 10:15:00,
2013-04-22 06:31:00,35.2,31.0,30.60,SE,137,2.0,3.0,84,0.00,,,0.00,weatherlink.com 1.10,2013-04-22 10:31:00,
2013-04-22 06:46:00,36.2,32.0,30.60,East,82,1.0,4.0,85,0.00,,,0.00,weatherlink.com 1.10,2013-04-22 10:46:00,
2013-04-22 07:01:00,36.7,33.0,30.60,ENE,75,1.0,3.0,85,0.00,,,0.00,weatherlink.com 1.10,2013-04-22 11:01:00,
2013-04-22 07:16:00,37.8,33.0,30.60,ENE,57,2.0,4.0,82,0.00,,,0.00,weatherlink.com 1.10,2013-04-22 11:16:00,
2013-04-22 07:31:00,39.0,33.0,30.60,ENE,71,2.0,4.0,79,0.00,,,0.00,weatherlink.com 1.10,2013-04-22 11:31:00,
2013-04-22 07:46:00,40.4,34.0,30.60,East,91,3.0,4.0,77,0.00,,,0.00,weatherlink.com 1.10,2013-04-22 11:46:00,
2013-04-22 08:01:00,40.8,33.0,30.60,NE,48,2.0,5.0,75,0.00,,,0.00,weatherlink.com 1.10,2013-04-22 12:01:00,
2013-04-22 08:16:00,41.6,33.0,30.61,ESE,121,3.0,5.0,71,0.00,,,0.00,weatherlink.com 1.10,2013-04-22 12:16:00,
2013-04-22 08:31:00,42.7,34.0,30.61,East,91,4.0,7.0,71,0.00,,,0.00,weatherlink.com 1.10,2013-04-22 12:31:00,
2013-04-22 08:46:00,45.1,31.0,30.61,East,86,9.0,10.0,59,0.00,,,0.00,weatherlink.com 1.10,2013-04-22 12:46:00,
2013-04-22 09:01:00,46.5,30.0,30.61,East,86,3.0,11.0,53,0.00,,,0.00,weatherlink.com 1.10,2013-04-22 13:01:00,
2013-04-22 09:16:00,46.6,30.0,30.61,East,79,5.0,11.0,52,0.00,,,0.00,weatherlink.com 1.10,2013-04-22 13:16:00,
2013-04-22 09:31:00,47.5,30.0,30.61,East,96,6.0,11.0,50,0.00,,,0.00,weatherlink.com 1.10,2013-04-22 13:31:00,
2013-04-22 09:46:00,48.0,31.0,30.60,ENE,74,5.0,13.0,52,0.00,,,0.00,weatherlink.com 1.10,2013-04-22 13:46:00,
2013-04-22 10:01:00,47.9,30.0,30.60,ESE,119,4.0,15.0,51,0.00,,,0.00,weatherlink.com 1.10,2013-04-22 14:01:00,
2013-04-22 10:16:00,47.8,31.0,30.60,East,96,4.0,12.0,53,0.00,,,0.00,weatherlink.com 1.10,2013-04-22 14:16:00,
2013-04-22 10:31:00,49.5,30.0,30.60,SE,145,7.0,13.0,48,0.00,,,0.00,weatherlink.com 1.10,2013-04-22 14:31:00,
2013-04-22 10:46:00,49.9,31.0,30.59,ESE,103,4.0,13.0,48,0.00,,,0.00,weatherlink.com 1.10,2013-04-22 14:46:00,
2013-04-22 11:01:00,50.0,32.0,30.59,ESE,118,6.0,14.0,51,0.00,,,0.00,weatherlink.com 1.10,2013-04-22 15:01:00,
2013-04-22 11:16:00,50.1,32.0,30.58,East,96,4.0,11.0,50,0.00,,,0.00,weatherlink.com 1.10,2013-04-22 15:16:00,
2013-04-22 11:31:00,50.5,32.0,30.58,NE,48,4.0,12.0,49,0.00,,,0.00,weatherlink.com 1.10,2013-04-22 15:31:00,
2013-04-22 11:46:00,51.2,31.0,30.58,ESE,116,9.0,12.0,47,0.00,,,0.00,weatherlink.com 1.10,2013-04-22 15:46:00,
2013-04-22 12:01:00,50.7,32.0,30.58,SE,127,5.0,16.0,50,0.00,,,0.00,weatherlink.com 1.10,2013-04-22 16:01:00,
2013-04-22 12:16:00,52.1,33.0,30.57,SE,127,9.0,14.0,48,0.00,,,0.00,weatherlink.com 1.10,2013-04-22 16:16:00,
2013-04-22 12:31:00,52.1,33.0,30.56,East,91,7.0,13.0,49,0.00,,,0.00,weatherlink.com 1.10,2013-04-22 16:31:00,
2013-04-22 12:46:00,52.4,32.0,30.56,South,177,3.0,15.0,47,0.00,,,0.00,weatherlink.com 1.10,2013-04-22 16:46:00,
2013-04-22 13:01:00,52.3,35.0,30.56,East,86,5.0,14.0,52,0.00,,,0.00,weatherlink.com 1.10,2013-04-22 17:01:00,
2013-04-22 13:16:00,52.3,33.0,30.56,SE,133,8.0,16.0,48,0.00,,,0.00,weatherlink.com 1.10,2013-04-22 17:16:00,
2013-04-22 13:31:00,53.0,35.0,30.55,ESE,119,6.0,13.0,50,0.00,,,0.00,weatherlink.com 1.10,2013-04-22 17:31:00,
2013-04-22 13:46:00,53.1,35.0,30.54,NE,50,7.0,15.0,50,0.00,,,0.00,weatherlink.com 1.10,2013-04-22 17:46:00,
2013-04-22 14:01:00,53.0,35.0,30.53,ESE,117,4.0,12.0,50,0.00,,,0.00,weatherlink.com 1.10,2013-04-22 18:01:00,
2013-04-22 14:16:00,53.7,36.0,30.52,ESE,122,10.0,12.0,51,0.00,,,0.00,weatherlink.com 1.10,2013-04-22 18:16:00,
2013-04-22 14:31:00,53.3,35.0,30.52,ESE,123,4.0,12.0,51,0.00,,,0.00,weatherlink.com 1.10,2013-04-22 18:31:00,
2013-04-22 14:46:00,53.6,34.0,30.51,SSE,156,9.0,12.0,48,0.00,,,0.00,weatherlink.com 1.10,2013-04-22 18:46:00,
2013-04-22 15:01:00,52.7,34.0,30.50,SSE,150,8.0,11.0,49,0.00,,,0.00,weatherlink.com 1.10,2013-04-22 19:01:00,
2013-04-22 15:16:00,54.4,36.0,30.50,SSE,148,1.0,12.0,50,0.00,,,0.00,weatherlink.com 1.10,2013-04-22 19:16:00,
2013-04-22 15:31:00,54.2,36.0,30.49,ESE,115,2.0,8.0,51,0.00,,,0.00,weatherlink.com 1.10,2013-04-22 19:31:00,
2013-04-22 15:46:00,54.3,36.0,30.49,SE,137,5.0,18.0,50,0.00,,,0.00,weatherlink.com 1.10,2013-04-22 19:46:00,
2013-04-22 16:02:00,53.9,36.0,30.49,East,96,9.0,13.0,52,0.00,,,0.00,weatherlink.com 1.10,2013-04-22 20:02:00,
2013-04-22 16:17:00,52.2,36.0,30.49,East,79,4.0,12.0,55,0.00,,,0.00,weatherlink.com 1.10,2013-04-22 20:17:00,
2013-04-22 16:32:00,52.1,36.0,30.49,SE,143,5.0,12.0,55,0.00,,,0.00,weatherlink.com 1.10,2013-04-22 20:32:00,
2013-04-22 16:47:00,52.6,36.0,30.48,South,180,8.0,13.0,54,0.00,,,0.00,weatherlink.com 1.10,2013-04-22 20:47:00,
2013-04-22 17:02:00,52.4,36.0,30.49,SE,131,4.0,16.0,55,0.00,,,0.00,weatherlink.com 1.10,2013-04-22 21:02:00,
2013-04-22 17:17:00,51.7,36.0,30.49,SSE,166,9.0,15.0,56,0.00,,,0.00,weatherlink.com 1.10,2013-04-22 21:17:00,
2013-04-22 17:32:00,51.8,36.0,30.49,ESE,108,5.0,14.0,55,0.00,,,0.00,weatherlink.com 1.10,2013-04-22 21:32:00,
2013-04-22 17:47:00,50.6,34.0,30.49,East,80,7.0,13.0,54,0.00,,,0.00,weatherlink.com 1.10,2013-04-22 21:47:00,
2013-04-22 18:02:00,50.1,34.0,30.48,ESE,102,4.0,14.0,55,0.00,,,0.00,weatherlink.com 1.10,2013-04-22 22:02:00,
2013-04-22 18:17:00,50.6,35.0,30.48,SSE,149,7.0,11.0,55,0.00,,,0.00,weatherlink.com 1.10,2013-04-22 22:17:00,
2013-04-22 18:32:00,50.4,34.0,30.47,ESE,112,5.0,13.0,54,0.00,,,0.00,weatherlink.com 1.10,2013-04-22 22:32:00,
2013-04-22 18:47:00,50.1,33.0,30.47,ESE,104,7.0,8.0,53,0.00,,,0.00,weatherlink.com 1.10,2013-04-22 22:47:00,
2013-04-22 19:02:00,49.6,32.0,30.46,ESE,112,4.0,9.0,52,0.00,,,0.00,weatherlink.com 1.10,2013-04-22 23:02:00,
2013-04-22 19:17:00,48.8,31.0,30.46,ESE,112,3.0,9.0,50,0.00,,,0.00,weatherlink.com 1.10,2013-04-22 23:17:00,
2013-04-22 19:32:00,48.1,30.0,30.46,ESE,108,5.0,13.0,49,0.00,,,0.00,weatherlink.com 1.10,2013-04-22 23:32:00,
2013-04-22 19:47:00,47.4,29.0,30.46,SE,134,4.0,10.0,50,0.00,,,0.00,weatherlink.com 1.10,2013-04-22 23:47:00,
2013-04-22 20:02:00,47.0,30.0,30.47,SSE,158,4.0,13.0,51,0.00,,,0.00,weatherlink.com 1.10,2013-04-23 00:02:00,
2013-04-22 20:17:00,46.5,30.0,30.47,SSE,150,4.0,17.0,53,0.00,,,0.00,weatherlink.com 1.10,2013-04-23 00:17:00,
2013-04-22 20:32:00,46.0,31.0,30.48,SE,139,4.0,10.0,56,0.00,,,0.00,weatherlink.com 1.10,2013-04-23 00:32:00,
2013-04-22 20:47:00,45.4,31.0,30.48,SSE,156,5.0,11.0,58,0.00,,,0.00,weatherlink.com 1.10,2013-04-23 00:47:00,
2013-04-22 21:02:00,45.2,31.0,30.48,SE,135,4.0,9.0,58,0.00,,,0.00,weatherlink.com 1.10,2013-04-23 01:02:00,
2013-04-22 21:17:00,44.8,31.0,30.48,SE,144,6.0,7.0,60,0.00,,,0.00,weatherlink.com 1.10,2013-04-23 01:17:00,
2013-04-22 21:32:00,44.5,32.0,30.48,ESE,106,3.0,7.0,61,0.00,,,0.00,weatherlink.com 1.10,2013-04-23 01:32:00,
2013-04-22 21:47:00,44.2,32.0,30.48,ESE,118,1.0,7.0,62,0.00,,,0.00,weatherlink.com 1.10,2013-04-23 01:47:00,
2013-04-22 22:02:00,43.9,33.0,30.48,ESE,115,3.0,6.0,65,0.00,,,0.00,weatherlink.com 1.10,2013-04-23 02:02:00,
2013-04-22 22:17:00,43.5,33.0,30.48,ESE,112,1.0,6.0,67,0.00,,,0.00,weatherlink.com 1.10,2013-04-23 02:17:00,
2013-04-22 22:32:00,43.1,34.0,30.47,East,101,2.0,4.0,71,0.00,,,0.00,weatherlink.com 1.10,2013-04-23 02:32:00,
2013-04-22 22:47:00,43.3,35.0,30.47,ESE,105,1.0,4.0,72,0.00,,,0.00,weatherlink.com 1.10,2013-04-23 02:47:00,
2013-04-22 23:02:00,43.4,35.0,30.47,East,96,1.0,4.0,71,0.00,,,0.00,weatherlink.com 1.10,2013-04-23 03:02:00,
2013-04-22 23:17:00,43.4,35.0,30.46,ESE,108,1.0,4.0,73,0.00,,,0.00,weatherlink.com 1.10,2013-04-23 03:17:00,
2013-04-22 23:32:00,43.6,36.0,30.46,ENE,71,2.0,5.0,74,0.00,,,0.00,weatherlink.com 1.10,2013-04-23 03:32:00,
2013-04-22 23:47:00,43.8,36.0,30.45,ESE,114,3.0,4.0,75,0.00,,,0.00,weatherlink.com 1.10,2013-04-23 03:47:00,